IGO1U VIPT-VILH
Flight info
| Callsign | IGO1U |
|---|---|
| Flight time | 1h 32m |
| Altitude | 36000 |
| Route | ALI DCT DPN DCT IGINO DCT ELKUX/N0463F350 |
| Aircraft | A320/M-SDE3FGHIRWY/LB1 |
Departure
| Time | 2026-04-26 12:28 |
|---|---|
| Airport | Pantnagar Airport (VIPT) |
Arrival
| Time | 2026-04-26 14:00 |
|---|---|
| Airport | Leh Kushok Bakula Rimpochee Airport (VILH) |
| Time | Latitude | Longitude | Altitude | Speed | Heading |
|---|---|---|---|---|---|
| 2026-04-26 11:34 | 29.03186 | 79.47312 | 776 ft | 0 kts | 190° |
| 2026-04-26 12:16 | 29.03185 | 79.47312 | 776 ft | 1 kts | 190° |
| 2026-04-26 12:16 | 29.03166 | 79.47309 | 776 ft | 4 kts | 180° |
| 2026-04-26 12:16 | 29.03160 | 79.47337 | 776 ft | 4 kts | 60° |
| 2026-04-26 12:17 | 29.03196 | 79.47352 | 776 ft | 7 kts | 13° |
| 2026-04-26 12:17 | 29.03252 | 79.47367 | 777 ft | 4 kts | 12° |
| 2026-04-26 12:18 | 29.03253 | 79.47367 | 777 ft | 0 kts | 12° |
| 2026-04-26 12:18 | 29.03254 | 79.47367 | 777 ft | 1 kts | 12° |
| 2026-04-26 12:18 | 29.03269 | 79.47371 | 777 ft | 0 kts | 12° |
| 2026-04-26 12:19 | 29.03280 | 79.47373 | 778 ft | 5 kts | 11° |
| 2026-04-26 12:19 | 29.03325 | 79.47392 | 780 ft | 9 kts | 49° |
| 2026-04-26 12:20 | 29.03316 | 79.47502 | 779 ft | 17 kts | 98° |
| 2026-04-26 12:20 | 29.03297 | 79.47643 | 779 ft | 18 kts | 98° |
| 2026-04-26 12:20 | 29.03278 | 79.47793 | 779 ft | 19 kts | 98° |
| 2026-04-26 12:20 | 29.03288 | 79.47905 | 777 ft | 13 kts | 96° |
| 2026-04-26 12:21 | 29.03258 | 79.47902 | 777 ft | 4 kts | 271° |
| 2026-04-26 12:21 | 29.03269 | 79.47866 | 778 ft | 5 kts | 281° |
| 2026-04-26 12:21 | 29.03270 | 79.47861 | 778 ft | 0 kts | 278° |
| 2026-04-26 12:27 | 29.03284 | 79.47743 | 779 ft | 51 kts | 278° |
| 2026-04-26 12:27 | 29.03374 | 79.47043 | 778 ft | 124 kts | 279° |
| 2026-04-26 12:28 | 29.03501 | 79.45892 | 1019 ft | 154 kts | 274° |
| 2026-04-26 12:28 | 29.03653 | 79.44702 | 1722 ft | 147 kts | 278° |
| 2026-04-26 12:28 | 29.03801 | 79.43568 | 2457 ft | 143 kts | 282° |
| 2026-04-26 12:28 | 29.03947 | 79.42474 | 2888 ft | 139 kts | 282° |
| 2026-04-26 12:29 | 29.04102 | 79.41385 | 3187 ft | 139 kts | 283° |
| 2026-04-26 12:29 | 29.04249 | 79.40300 | 3499 ft | 138 kts | 282° |
| 2026-04-26 12:29 | 29.04566 | 79.38150 | 3997 ft | 147 kts | 283° |
| 2026-04-26 12:30 | 29.04734 | 79.36968 | 4250 ft | 154 kts | 283° |
| 2026-04-26 12:30 | 29.04919 | 79.35721 | 4481 ft | 164 kts | 283° |
| 2026-04-26 12:30 | 29.05123 | 79.34412 | 4773 ft | 171 kts | 283° |
| 2026-04-26 12:31 | 29.05563 | 79.31590 | 5294 ft | 193 kts | 283° |
| 2026-04-26 12:31 | 29.05818 | 79.30025 | 5559 ft | 206 kts | 283° |
| 2026-04-26 12:31 | 29.06101 | 79.28361 | 5824 ft | 222 kts | 283° |
| 2026-04-26 12:31 | 29.06417 | 79.26569 | 6212 ft | 237 kts | 283° |
| 2026-04-26 12:32 | 29.06756 | 79.24667 | 6613 ft | 250 kts | 283° |
| 2026-04-26 12:32 | 29.07003 | 79.22667 | 7163 ft | 259 kts | 269° |
| 2026-04-26 12:32 | 29.04965 | 79.19163 | 8421 ft | 289 kts | 222° |
| 2026-04-26 12:33 | 29.03319 | 79.17816 | 9067 ft | 293 kts | 223° |
| 2026-04-26 12:33 | 29.01661 | 79.16442 | 9701 ft | 296 kts | 223° |
| 2026-04-26 12:33 | 28.99988 | 79.15042 | 10213 ft | 304 kts | 223° |
| 2026-04-26 12:33 | 28.98229 | 79.13555 | 10336 ft | 326 kts | 222° |
| 2026-04-26 12:34 | 28.96353 | 79.11965 | 10462 ft | 346 kts | 221° |
| 2026-04-26 12:34 | 28.94367 | 79.10287 | 10578 ft | 364 kts | 221° |
| 2026-04-26 12:34 | 28.92290 | 79.08534 | 10757 ft | 378 kts | 221° |
| 2026-04-26 12:34 | 28.90155 | 79.06742 | 11162 ft | 384 kts | 220° |
| 2026-04-26 12:35 | 28.87990 | 79.04932 | 11656 ft | 387 kts | 220° |
| 2026-04-26 12:35 | 28.85807 | 79.03110 | 12169 ft | 391 kts | 220° |
| 2026-04-26 12:35 | 28.83604 | 79.01267 | 12662 ft | 395 kts | 220° |
| 2026-04-26 12:35 | 28.81381 | 78.99406 | 13173 ft | 398 kts | 219° |
| 2026-04-26 12:36 | 28.79139 | 78.97531 | 13648 ft | 402 kts | 219° |
| 2026-04-26 12:36 | 28.76882 | 78.95640 | 14140 ft | 404 kts | 219° |
| 2026-04-26 12:36 | 28.74612 | 78.93736 | 14632 ft | 406 kts | 219° |
| 2026-04-26 12:36 | 28.72330 | 78.91822 | 15134 ft | 409 kts | 219° |
| 2026-04-26 12:37 | 28.70029 | 78.89896 | 15642 ft | 411 kts | 219° |
| 2026-04-26 12:37 | 28.67716 | 78.87962 | 16142 ft | 414 kts | 219° |
| 2026-04-26 12:37 | 28.65383 | 78.86017 | 16643 ft | 417 kts | 219° |
| 2026-04-26 12:37 | 28.63038 | 78.84064 | 17149 ft | 419 kts | 219° |
| 2026-04-26 12:38 | 28.60677 | 78.82098 | 17637 ft | 422 kts | 219° |
| 2026-04-26 12:38 | 28.58302 | 78.80118 | 18083 ft | 425 kts | 220° |
| 2026-04-26 12:38 | 28.55911 | 78.78123 | 18477 ft | 427 kts | 220° |
| 2026-04-26 12:38 | 28.53507 | 78.76115 | 18871 ft | 430 kts | 220° |
| 2026-04-26 12:39 | 28.51091 | 78.74100 | 19262 ft | 433 kts | 220° |
| 2026-04-26 12:39 | 28.48653 | 78.72073 | 19637 ft | 435 kts | 220° |
| 2026-04-26 12:39 | 28.46198 | 78.70038 | 19999 ft | 439 kts | 219° |
| 2026-04-26 12:39 | 28.43723 | 78.67989 | 20389 ft | 441 kts | 219° |
| 2026-04-26 12:40 | 28.41243 | 78.65934 | 20726 ft | 444 kts | 219° |
| 2026-04-26 12:40 | 28.38738 | 78.63854 | 21078 ft | 447 kts | 219° |
| 2026-04-26 12:40 | 28.36221 | 78.61762 | 21419 ft | 449 kts | 219° |
| 2026-04-26 12:40 | 28.33691 | 78.59659 | 21744 ft | 452 kts | 219° |
| 2026-04-26 12:41 | 28.31151 | 78.57548 | 22083 ft | 454 kts | 219° |
| 2026-04-26 12:41 | 28.28596 | 78.55430 | 22411 ft | 456 kts | 219° |
| 2026-04-26 12:41 | 28.26027 | 78.53308 | 22723 ft | 458 kts | 219° |
| 2026-04-26 12:41 | 28.23442 | 78.51177 | 23022 ft | 461 kts | 219° |
| 2026-04-26 12:42 | 28.20842 | 78.49036 | 23299 ft | 463 kts | 219° |
| 2026-04-26 12:42 | 28.18235 | 78.46884 | 23556 ft | 464 kts | 219° |
| 2026-04-26 12:42 | 28.15623 | 78.44725 | 23802 ft | 466 kts | 219° |
| 2026-04-26 12:42 | 28.13002 | 78.42560 | 24072 ft | 467 kts | 219° |
| 2026-04-26 12:43 | 28.10371 | 78.40388 | 24339 ft | 468 kts | 219° |
| 2026-04-26 12:43 | 28.07733 | 78.38212 | 24607 ft | 470 kts | 219° |
| 2026-04-26 12:43 | 28.05084 | 78.36031 | 24898 ft | 471 kts | 219° |
| 2026-04-26 12:43 | 28.02439 | 78.33856 | 25283 ft | 469 kts | 219° |
| 2026-04-26 12:44 | 27.99801 | 78.31688 | 25676 ft | 468 kts | 219° |
| 2026-04-26 12:44 | 27.97170 | 78.29527 | 26082 ft | 467 kts | 220° |
| 2026-04-26 12:44 | 27.94544 | 78.27371 | 26494 ft | 466 kts | 220° |
| 2026-04-26 12:44 | 27.91928 | 78.25217 | 26911 ft | 464 kts | 221° |
| 2026-04-26 12:45 | 27.89627 | 78.22725 | 27336 ft | 454 kts | 237° |
| 2026-04-26 12:45 | 27.88092 | 78.19664 | 27755 ft | 444 kts | 254° |
| 2026-04-26 12:45 | 27.87433 | 78.16310 | 28184 ft | 435 kts | 270° |
| 2026-04-26 12:45 | 27.87642 | 78.12944 | 28624 ft | 427 kts | 285° |
| 2026-04-26 12:46 | 27.88649 | 78.09818 | 29080 ft | 422 kts | 300° |
| 2026-04-26 12:46 | 27.90304 | 78.07105 | 29540 ft | 419 kts | 308° |
| 2026-04-26 12:46 | 27.92092 | 78.04508 | 29966 ft | 418 kts | 308° |
| 2026-04-26 12:46 | 27.93873 | 78.01922 | 30359 ft | 416 kts | 308° |
| 2026-04-26 12:47 | 27.95650 | 77.99339 | 30759 ft | 415 kts | 308° |
| 2026-04-26 12:47 | 27.97420 | 77.96761 | 31138 ft | 414 kts | 308° |
| 2026-04-26 12:47 | 27.99183 | 77.94185 | 31516 ft | 414 kts | 307° |
| 2026-04-26 12:47 | 28.00942 | 77.91610 | 31879 ft | 413 kts | 307° |
| 2026-04-26 12:48 | 28.02697 | 77.89041 | 32258 ft | 413 kts | 307° |
| 2026-04-26 12:48 | 28.04452 | 77.86476 | 32652 ft | 411 kts | 307° |
| 2026-04-26 12:48 | 28.06202 | 77.83918 | 33064 ft | 410 kts | 307° |
| 2026-04-26 12:48 | 28.07945 | 77.81366 | 33473 ft | 409 kts | 307° |
| 2026-04-26 12:49 | 28.09682 | 77.78821 | 33846 ft | 408 kts | 307° |
| 2026-04-26 12:49 | 28.11413 | 77.76284 | 34188 ft | 407 kts | 306° |
| 2026-04-26 12:49 | 28.13140 | 77.73749 | 34515 ft | 405 kts | 306° |
| 2026-04-26 12:49 | 28.14859 | 77.71224 | 34822 ft | 404 kts | 306° |
| 2026-04-26 12:50 | 28.16575 | 77.68704 | 35108 ft | 404 kts | 306° |
| 2026-04-26 12:50 | 28.18291 | 77.66188 | 35399 ft | 403 kts | 306° |
| 2026-04-26 12:50 | 28.20006 | 77.63676 | 35622 ft | 403 kts | 306° |
| 2026-04-26 12:51 | 28.23463 | 77.58589 | 35683 ft | 413 kts | 305° |
| 2026-04-26 12:51 | 28.26997 | 77.53368 | 35679 ft | 419 kts | 305° |
| 2026-04-26 12:52 | 28.30551 | 77.48116 | 35685 ft | 420 kts | 305° |
| 2026-04-26 12:52 | 28.34112 | 77.42856 | 35683 ft | 420 kts | 305° |
| 2026-04-26 12:53 | 28.37677 | 77.37594 | 35702 ft | 420 kts | 306° |
| 2026-04-26 12:53 | 28.41239 | 77.32330 | 35712 ft | 420 kts | 305° |
| 2026-04-26 12:54 | 28.44787 | 77.27062 | 35718 ft | 420 kts | 305° |
| 2026-04-26 12:54 | 28.48333 | 77.21789 | 35703 ft | 420 kts | 305° |
| 2026-04-26 12:55 | 28.51883 | 77.16514 | 35690 ft | 421 kts | 305° |
| 2026-04-26 12:55 | 28.55440 | 77.11224 | 35700 ft | 422 kts | 305° |
| 2026-04-26 12:56 | 28.59289 | 77.06170 | 35690 ft | 424 kts | 310° |
| 2026-04-26 12:56 | 28.63292 | 77.01246 | 35707 ft | 424 kts | 310° |
| 2026-04-26 12:57 | 28.67300 | 76.96320 | 35711 ft | 424 kts | 310° |
| 2026-04-26 12:57 | 28.71304 | 76.91378 | 35715 ft | 425 kts | 310° |
| 2026-04-26 12:58 | 28.77314 | 76.83957 | 35707 ft | 425 kts | 310° |
| 2026-04-26 12:58 | 28.81290 | 76.79041 | 35701 ft | 424 kts | 310° |
| 2026-04-26 12:59 | 28.85287 | 76.74091 | 35704 ft | 424 kts | 310° |
| 2026-04-26 12:59 | 28.89280 | 76.69135 | 35726 ft | 424 kts | 310° |
| 2026-04-26 13:00 | 28.92627 | 76.64981 | 35723 ft | 424 kts | 310° |
| 2026-04-26 13:00 | 28.97319 | 76.59265 | 35712 ft | 426 kts | 316° |
| 2026-04-26 13:01 | 29.01594 | 76.56342 | 35713 ft | 435 kts | 337° |
| 2026-04-26 13:01 | 29.04562 | 76.55536 | 35714 ft | 443 kts | 349° |
| 2026-04-26 13:01 | 29.07663 | 76.55528 | 35708 ft | 451 kts | 3° |
| 2026-04-26 13:02 | 29.13812 | 76.57277 | 35701 ft | 457 kts | 11° |
| 2026-04-26 13:02 | 29.19947 | 76.59217 | 35703 ft | 458 kts | 10° |
| 2026-04-26 13:03 | 29.26090 | 76.61160 | 35700 ft | 458 kts | 10° |
| 2026-04-26 13:03 | 29.32237 | 76.63095 | 35695 ft | 458 kts | 9° |
| 2026-04-26 13:04 | 29.35345 | 76.63607 | 35696 ft | 445 kts | 352° |
| 2026-04-26 13:04 | 29.38297 | 76.62879 | 35693 ft | 430 kts | 331° |
| 2026-04-26 13:04 | 29.40726 | 76.61002 | 35681 ft | 417 kts | 310° |
| 2026-04-26 13:04 | 29.42298 | 76.58271 | 35670 ft | 410 kts | 289° |
| 2026-04-26 13:05 | 29.43485 | 76.51892 | 35664 ft | 411 kts | 280° |
| 2026-04-26 13:05 | 29.44517 | 76.45419 | 35652 ft | 414 kts | 280° |
| 2026-04-26 13:06 | 29.45557 | 76.38900 | 35658 ft | 417 kts | 280° |
| 2026-04-26 13:06 | 29.46601 | 76.32350 | 35662 ft | 418 kts | 280° |
| 2026-04-26 13:07 | 29.47364 | 76.29135 | 35660 ft | 419 kts | 292° |
| 2026-04-26 13:07 | 29.48703 | 76.26161 | 35666 ft | 420 kts | 297° |
| 2026-04-26 13:07 | 29.51518 | 76.20270 | 35669 ft | 421 kts | 297° |
| 2026-04-26 13:08 | 29.54335 | 76.14364 | 35672 ft | 422 kts | 297° |
| 2026-04-26 13:08 | 29.57147 | 76.08441 | 35669 ft | 423 kts | 297° |
| 2026-04-26 13:09 | 29.59963 | 76.02505 | 35677 ft | 423 kts | 297° |
| 2026-04-26 13:09 | 29.62782 | 75.96563 | 35685 ft | 424 kts | 297° |
| 2026-04-26 13:10 | 29.65596 | 75.90608 | 35709 ft | 424 kts | 297° |
| 2026-04-26 13:10 | 29.68413 | 75.84648 | 35704 ft | 424 kts | 297° |
| 2026-04-26 13:11 | 29.71227 | 75.78687 | 35701 ft | 424 kts | 297° |
| 2026-04-26 13:11 | 29.74037 | 75.72724 | 35695 ft | 424 kts | 297° |
| 2026-04-26 13:12 | 29.76844 | 75.66761 | 35698 ft | 424 kts | 297° |
| 2026-04-26 13:12 | 29.79765 | 75.60873 | 35690 ft | 425 kts | 307° |
| 2026-04-26 13:13 | 29.81894 | 75.58504 | 35686 ft | 430 kts | 322° |
| 2026-04-26 13:13 | 29.84572 | 75.56938 | 35686 ft | 437 kts | 339° |
| 2026-04-26 13:13 | 29.87593 | 75.56380 | 35680 ft | 446 kts | 357° |
| 2026-04-26 13:13 | 29.90683 | 75.56952 | 35677 ft | 457 kts | 15° |
| 2026-04-26 13:14 | 29.93533 | 75.58635 | 35669 ft | 466 kts | 30° |
| 2026-04-26 13:14 | 29.96199 | 75.60764 | 35658 ft | 467 kts | 31° |
| 2026-04-26 13:14 | 30.01530 | 75.65096 | 35655 ft | 470 kts | 31° |
| 2026-04-26 13:15 | 30.06879 | 75.69461 | 35661 ft | 471 kts | 31° |
| 2026-04-26 13:15 | 30.12249 | 75.73810 | 35667 ft | 472 kts | 31° |
| 2026-04-26 13:16 | 30.17638 | 75.78161 | 35677 ft | 473 kts | 31° |
| 2026-04-26 13:16 | 30.23023 | 75.82537 | 35701 ft | 473 kts | 31° |
| 2026-04-26 13:17 | 30.31055 | 75.89083 | 35701 ft | 473 kts | 31° |
| 2026-04-26 13:18 | 30.39117 | 75.95659 | 35697 ft | 472 kts | 31° |
| 2026-04-26 13:19 | 30.47178 | 76.02225 | 35701 ft | 472 kts | 31° |
| 2026-04-26 13:19 | 30.52542 | 76.06615 | 35699 ft | 472 kts | 31° |
| 2026-04-26 13:20 | 30.57903 | 76.11012 | 35707 ft | 472 kts | 31° |
| 2026-04-26 13:20 | 30.63260 | 76.15403 | 35713 ft | 471 kts | 31° |
| 2026-04-26 13:21 | 30.68616 | 76.19793 | 35714 ft | 471 kts | 31° |
| 2026-04-26 13:21 | 30.73960 | 76.24201 | 35717 ft | 471 kts | 31° |
| 2026-04-26 13:22 | 30.79306 | 76.28617 | 35738 ft | 471 kts | 31° |
| 2026-04-26 13:22 | 30.84655 | 76.33025 | 35737 ft | 471 kts | 30° |
| 2026-04-26 13:23 | 30.89993 | 76.37433 | 35728 ft | 470 kts | 30° |
| 2026-04-26 13:23 | 30.95327 | 76.41843 | 35728 ft | 470 kts | 31° |
| 2026-04-26 13:24 | 31.00651 | 76.46252 | 35725 ft | 469 kts | 30° |
| 2026-04-26 13:24 | 31.05974 | 76.50659 | 35742 ft | 469 kts | 30° |
| 2026-04-26 13:25 | 31.11289 | 76.55079 | 35756 ft | 469 kts | 30° |
| 2026-04-26 13:25 | 31.16599 | 76.59495 | 35758 ft | 468 kts | 30° |
| 2026-04-26 13:26 | 31.21903 | 76.63907 | 35754 ft | 468 kts | 30° |
| 2026-04-26 13:26 | 31.27198 | 76.68327 | 35778 ft | 467 kts | 30° |
| 2026-04-26 13:27 | 31.32522 | 76.72782 | 35779 ft | 467 kts | 31° |
| 2026-04-26 13:27 | 31.37807 | 76.77208 | 35779 ft | 468 kts | 30° |
| 2026-04-26 13:28 | 31.43108 | 76.81643 | 35828 ft | 468 kts | 30° |
| 2026-04-26 13:28 | 31.48399 | 76.86076 | 35820 ft | 468 kts | 30° |
| 2026-04-26 13:29 | 31.53644 | 76.90488 | 35834 ft | 467 kts | 30° |
| 2026-04-26 13:29 | 31.58920 | 76.94924 | 35869 ft | 466 kts | 30° |
| 2026-04-26 13:30 | 31.64192 | 76.99360 | 35883 ft | 466 kts | 30° |
| 2026-04-26 13:30 | 31.69493 | 77.03831 | 35902 ft | 466 kts | 30° |
| 2026-04-26 13:31 | 31.74705 | 77.08237 | 35912 ft | 464 kts | 30° |
| 2026-04-26 13:31 | 31.79985 | 77.12707 | 35956 ft | 465 kts | 30° |
| 2026-04-26 13:32 | 31.85251 | 77.17170 | 35941 ft | 466 kts | 30° |
| 2026-04-26 13:32 | 31.90496 | 77.21621 | 35982 ft | 465 kts | 30° |
| 2026-04-26 13:33 | 31.95739 | 77.26069 | 36054 ft | 464 kts | 30° |
| 2026-04-26 13:33 | 32.00963 | 77.30513 | 36114 ft | 463 kts | 30° |
| 2026-04-26 13:34 | 32.06170 | 77.34951 | 36103 ft | 461 kts | 30° |
| 2026-04-26 13:34 | 32.11352 | 77.39377 | 36179 ft | 460 kts | 31° |
| 2026-04-26 13:35 | 32.16540 | 77.43805 | 36182 ft | 461 kts | 29° |
| 2026-04-26 13:35 | 32.21712 | 77.48228 | 36169 ft | 454 kts | 29° |
| 2026-04-26 13:36 | 32.26859 | 77.52649 | 36235 ft | 459 kts | 29° |
| 2026-04-26 13:36 | 32.32047 | 77.57082 | 36215 ft | 461 kts | 29° |
| 2026-04-26 13:37 | 32.37240 | 77.61522 | 36222 ft | 457 kts | 27° |
| 2026-04-26 13:37 | 32.42809 | 77.64781 | 36227 ft | 442 kts | 14° |
| 2026-04-26 13:38 | 32.48585 | 77.67250 | 36207 ft | 441 kts | 13° |
| 2026-04-26 13:38 | 32.54368 | 77.69729 | 36215 ft | 442 kts | 13° |
| 2026-04-26 13:39 | 32.60161 | 77.72221 | 36222 ft | 442 kts | 13° |
| 2026-04-26 13:39 | 32.65938 | 77.74716 | 36213 ft | 442 kts | 13° |
| 2026-04-26 13:40 | 32.71696 | 77.77211 | 36200 ft | 440 kts | 14° |
| 2026-04-26 13:40 | 32.76498 | 77.79298 | 36217 ft | 443 kts | 13° |
| 2026-04-26 13:41 | 32.83231 | 77.82206 | 36210 ft | 443 kts | 13° |
| 2026-04-26 13:41 | 32.89028 | 77.84719 | 36193 ft | 443 kts | 14° |
| 2026-04-26 13:42 | 32.93866 | 77.86835 | 36191 ft | 442 kts | 14° |
| 2026-04-26 13:42 | 32.96755 | 77.88097 | 36007 ft | 442 kts | 14° |
| 2026-04-26 13:42 | 32.99636 | 77.89350 | 35751 ft | 441 kts | 13° |
| 2026-04-26 13:42 | 33.02515 | 77.90598 | 35500 ft | 440 kts | 14° |
| 2026-04-26 13:43 | 33.05391 | 77.91846 | 35264 ft | 440 kts | 14° |
| 2026-04-26 13:43 | 33.08262 | 77.93096 | 35022 ft | 440 kts | 14° |
| 2026-04-26 13:43 | 33.11143 | 77.94353 | 34802 ft | 440 kts | 14° |
| 2026-04-26 13:43 | 33.14015 | 77.95608 | 34563 ft | 440 kts | 14° |
| 2026-04-26 13:44 | 33.16882 | 77.96863 | 34339 ft | 438 kts | 14° |
| 2026-04-26 13:44 | 33.19739 | 77.98116 | 34098 ft | 438 kts | 14° |
| 2026-04-26 13:44 | 33.22597 | 77.99370 | 33828 ft | 438 kts | 14° |
| 2026-04-26 13:44 | 33.25460 | 78.00622 | 33505 ft | 438 kts | 13° |
| 2026-04-26 13:45 | 33.28388 | 78.01477 | 33131 ft | 430 kts | 2° |
| 2026-04-26 13:45 | 33.31356 | 78.01697 | 32624 ft | 426 kts | 355° |
| 2026-04-26 13:45 | 33.34306 | 78.01332 | 31677 ft | 425 kts | 345° |
| 2026-04-26 13:45 | 33.37134 | 78.00378 | 30920 ft | 422 kts | 337° |
| 2026-04-26 13:46 | 33.39831 | 77.98972 | 29939 ft | 424 kts | 333° |
| 2026-04-26 13:46 | 33.42512 | 77.97518 | 28782 ft | 422 kts | 334° |
| 2026-04-26 13:46 | 33.45172 | 77.96096 | 27843 ft | 415 kts | 334° |
| 2026-04-26 13:46 | 33.47793 | 77.94710 | 26846 ft | 412 kts | 334° |
| 2026-04-26 13:47 | 33.50431 | 77.93326 | 25868 ft | 416 kts | 335° |
| 2026-04-26 13:47 | 33.53102 | 77.91907 | 24786 ft | 425 kts | 335° |
| 2026-04-26 13:47 | 33.55814 | 77.90443 | 23753 ft | 431 kts | 334° |
| 2026-04-26 13:47 | 33.58562 | 77.88945 | 22606 ft | 435 kts | 334° |
| 2026-04-26 13:48 | 33.61293 | 77.87465 | 21515 ft | 438 kts | 335° |
| 2026-04-26 13:48 | 33.64107 | 77.85936 | 20527 ft | 437 kts | 334° |
| 2026-04-26 13:48 | 33.66832 | 77.84458 | 19741 ft | 434 kts | 335° |
| 2026-04-26 13:48 | 33.69574 | 77.82985 | 18881 ft | 432 kts | 335° |
| 2026-04-26 13:49 | 33.72323 | 77.81504 | 17921 ft | 433 kts | 335° |
| 2026-04-26 13:49 | 33.75039 | 77.80050 | 17389 ft | 421 kts | 336° |
| 2026-04-26 13:49 | 33.77619 | 77.78677 | 17223 ft | 387 kts | 335° |
| 2026-04-26 13:49 | 33.79952 | 77.77416 | 16983 ft | 348 kts | 335° |
| 2026-04-26 13:50 | 33.82047 | 77.76276 | 16733 ft | 315 kts | 335° |
| 2026-04-26 13:50 | 33.83953 | 77.75239 | 16578 ft | 286 kts | 334° |
| 2026-04-26 13:50 | 33.85721 | 77.74283 | 16479 ft | 274 kts | 334° |
| 2026-04-26 13:50 | 33.87402 | 77.73363 | 16499 ft | 262 kts | 334° |
| 2026-04-26 13:51 | 33.89059 | 77.72453 | 16537 ft | 260 kts | 333° |
| 2026-04-26 13:51 | 33.90701 | 77.71542 | 16463 ft | 260 kts | 333° |
| 2026-04-26 13:51 | 33.92301 | 77.70662 | 16330 ft | 245 kts | 334° |
| 2026-04-26 13:51 | 33.93795 | 77.69846 | 16228 ft | 227 kts | 334° |
| 2026-04-26 13:52 | 33.95189 | 77.69095 | 16176 ft | 211 kts | 334° |
| 2026-04-26 13:52 | 33.96498 | 77.68382 | 16084 ft | 203 kts | 335° |
| 2026-04-26 13:52 | 33.97760 | 77.67695 | 16047 ft | 199 kts | 334° |
| 2026-04-26 13:52 | 33.99028 | 77.67007 | 15974 ft | 200 kts | 335° |
| 2026-04-26 13:53 | 34.00258 | 77.66235 | 15895 ft | 199 kts | 322° |
| 2026-04-26 13:53 | 34.01307 | 77.65199 | 15837 ft | 194 kts | 320° |
| 2026-04-26 13:53 | 34.02340 | 77.64161 | 15601 ft | 192 kts | 320° |
| 2026-04-26 13:53 | 34.03372 | 77.63139 | 15429 ft | 192 kts | 319° |
| 2026-04-26 13:54 | 34.04399 | 77.62120 | 15363 ft | 191 kts | 318° |
| 2026-04-26 13:54 | 34.05421 | 77.61100 | 15234 ft | 191 kts | 319° |
| 2026-04-26 13:54 | 34.06449 | 77.60071 | 15145 ft | 192 kts | 319° |
| 2026-04-26 13:55 | 34.08494 | 77.57983 | 15092 ft | 192 kts | 319° |
| 2026-04-26 13:55 | 34.09174 | 77.57309 | 14961 ft | 190 kts | 320° |
| 2026-04-26 13:55 | 34.11638 | 77.55053 | 14561 ft | 191 kts | 337° |
| 2026-04-26 13:56 | 34.12944 | 77.54753 | 14606 ft | 194 kts | 1° |
| 2026-04-26 13:56 | 34.14294 | 77.54704 | 14444 ft | 193 kts | 343° |
| 2026-04-26 13:56 | 34.15399 | 77.53851 | 14081 ft | 191 kts | 308° |
| 2026-04-26 13:56 | 34.16156 | 77.52531 | 13789 ft | 191 kts | 303° |
| 2026-04-26 13:57 | 34.16921 | 77.51210 | 13539 ft | 190 kts | 304° |
| 2026-04-26 13:57 | 34.17514 | 77.49817 | 13170 ft | 187 kts | 274° |
| 2026-04-26 13:57 | 34.17215 | 77.48347 | 12739 ft | 182 kts | 236° |
| 2026-04-26 13:57 | 34.16242 | 77.47395 | 12414 ft | 183 kts | 207° |
| 2026-04-26 13:58 | 34.15106 | 77.46698 | 12101 ft | 182 kts | 202° |
| 2026-04-26 13:58 | 34.13895 | 77.46727 | 11772 ft | 180 kts | 151° |
| 2026-04-26 13:58 | 34.12979 | 77.47787 | 11481 ft | 190 kts | 127° |
| 2026-04-26 13:58 | 34.12309 | 77.49214 | 11211 ft | 203 kts | 101° |
| 2026-04-26 13:59 | 34.12436 | 77.50850 | 10994 ft | 197 kts | 63° |
| 2026-04-26 13:59 | 34.12960 | 77.52399 | 10721 ft | 199 kts | 69° |
| 2026-04-26 13:59 | 34.13400 | 77.53944 | 10629 ft | 177 kts | 68° |
| 2026-04-26 14:00 | 34.13862 | 77.55516 | 10793 ft | 28 kts | 70° |
| 2026-04-26 14:00 | 34.13913 | 77.55695 | 10817 ft | 16 kts | 71° |
| 2026-04-26 14:00 | 34.13934 | 77.55770 | 10826 ft | 14 kts | 70° |
| 2026-04-26 14:01 | 34.13986 | 77.55947 | 10854 ft | 18 kts | 71° |
| 2026-04-26 14:01 | 34.14028 | 77.56066 | 10871 ft | 10 kts | 31° |
| 2026-04-26 14:01 | 34.14052 | 77.55998 | 10866 ft | 18 kts | 268° |
| 2026-04-26 14:01 | 34.14050 | 77.55776 | 10830 ft | 31 kts | 271° |
| 2026-04-26 14:02 | 34.14052 | 77.55559 | 10811 ft | 15 kts | 270° |
| 2026-04-26 14:02 | 34.14092 | 77.55488 | 10811 ft | 11 kts | 332° |
| 2026-04-26 14:02 | 34.14118 | 77.55473 | 10815 ft | 0 kts | 334° |
| 2026-04-26 14:02 | 34.14133 | 77.55465 | 10819 ft | 4 kts | 334° |
| 2026-04-26 14:03 | 34.14177 | 77.55441 | 10827 ft | 12 kts | 336° |
| 2026-04-26 14:03 | 34.14236 | 77.55411 | 10830 ft | 3 kts | 355° |
| 2026-04-26 14:03 | 34.14243 | 77.55418 | 10832 ft | 0 kts | 41° |
| 2026-04-26 14:03 | 34.14245 | 77.55431 | 10831 ft | 0 kts | 81° |